Time;durP1;ratioP1;P1;durP2;ratioP2;P2;SDS_P1;SDS_P2;PMS_P1;PMS_P2;Temp;Humidity;BMP_temperature;BMP_pressure;BME280_temperature;BME280_humidity;BME280_pressure;Samples;Min_cycle;Max_cycle;Signal;HPM_P1;HPM_P2
2023/07/23 00:00:39;;;;;;;17.48;7.95;;;14.50;99.90;;;;;;5013289;28;20033;-84
2023/07/23 00:03:05;;;;;;;14.13;6.97;;;14.50;99.90;;;;;;5031167;28;20857;-85
2023/07/23 00:05:31;;;;;;;15.18;7.60;;;14.50;99.90;;;;;;5015738;28;20041;-84
2023/07/23 00:07:58;;;;;;;17.15;7.53;;;14.50;99.90;;;;;;5012283;28;20053;-85
2023/07/23 00:10:25;;;;;;;18.92;7.65;;;14.40;99.90;;;;;;5012167;28;20405;-85
2023/07/23 00:12:51;;;;;;;17.35;8.13;;;14.40;99.90;;;;;;5020979;28;20127;-85
2023/07/23 00:15:18;;;;;;;16.92;7.43;;;14.40;99.90;;;;;;5011655;28;20041;-85
2023/07/23 00:17:44;;;;;;;15.38;7.45;;;14.40;99.90;;;;;;5011946;28;20096;-84
2023/07/23 00:20:11;;;;;;;17.70;7.55;;;14.40;99.90;;;;;;5012043;28;20444;-85
2023/07/23 00:22:38;;;;;;;15.43;7.13;;;14.50;99.90;;;;;;5012121;28;20184;-85
2023/07/23 00:25:05;;;;;;;16.38;6.97;;;14.40;99.90;;;;;;5028955;28;20072;-85
2023/07/23 00:27:31;;;;;;;15.60;7.15;;;14.40;99.90;;;;;;5011440;28;20030;-85
2023/07/23 00:29:57;;;;;;;18.50;6.90;;;14.30;99.90;;;;;;4982897;28;20091;-85
2023/07/23 00:32:23;;;;;;;12.98;6.72;;;14.40;99.90;;;;;;5029346;28;20143;-84
2023/07/23 00:34:49;;;;;;;15.55;7.07;;;14.40;99.90;;;;;;5028591;28;20041;-86
2023/07/23 00:37:15;;;;;;;15.05;7.35;;;14.40;99.90;;;;;;5028953;28;20045;-85
2023/07/23 00:39:41;;;;;;;15.10;7.32;;;14.30;99.90;;;;;;5011943;28;20053;-85
2023/07/23 00:42:07;;;;;;;14.77;7.72;;;14.30;99.90;;;;;;5000860;28;20041;-85
2023/07/23 00:44:33;;;;;;;14.35;7.35;;;14.30;99.90;;;;;;5009892;28;20045;-85
2023/07/23 00:47:00;;;;;;;17.02;7.90;;;14.30;99.90;;;;;;5011400;28;20538;-85
2023/07/23 00:49:26;;;;;;;13.73;7.30;;;14.30;99.90;;;;;;5011353;28;20044;-85
2023/07/23 00:51:53;;;;;;;15.35;7.95;;;14.30;99.90;;;;;;5028605;28;20128;-85
2023/07/23 00:54:20;;;;;;;14.27;7.63;;;14.30;99.90;;;;;;5012432;28;20041;-85
2023/07/23 00:56:47;;;;;;;15.48;7.93;;;14.20;99.90;;;;;;5016503;28;20045;-85
2023/07/23 00:59:13;;;;;;;13.50;7.35;;;14.30;99.90;;;;;;5009487;28;20042;-84
2023/07/23 01:01:39;;;;;;;18.05;8.32;;;14.20;99.90;;;;;;5010998;28;20049;-84
2023/07/23 01:04:05;;;;;;;14.70;7.53;;;14.20;99.90;;;;;;5027467;28;20370;-86
2023/07/23 01:06:37;;;;;;;14.50;7.97;;;14.20;99.90;;;;;;5011182;28;20136;-86
2023/07/23 01:09:04;;;;;;;14.10;8.02;;;14.20;99.90;;;;;;5010517;28;20588;-85
2023/07/23 01:11:32;;;;;;;17.92;8.43;;;14.20;99.90;;;;;;5010394;28;20509;-85
2023/07/23 01:13:59;;;;;;;15.18;7.63;;;14.20;99.90;;;;;;5010182;28;20080;-85
2023/07/23 01:16:25;;;;;;;13.93;8.05;;;14.20;99.90;;;;;;5007063;28;20038;-85
2023/07/23 01:18:51;;;;;;;13.70;7.97;;;14.20;99.90;;;;;;5011449;28;20041;-86
2023/07/23 01:21:17;;;;;;;15.57;7.97;;;14.20;99.90;;;;;;4998915;28;20049;-85
2023/07/23 01:23:44;;;;;;;16.77;8.27;;;14.20;99.90;;;;;;5009738;28;20092;-85
2023/07/23 01:26:10;;;;;;;20.80;8.43;;;14.20;99.90;;;;;;5011092;28;20045;-85
2023/07/23 01:28:36;;;;;;;17.23;8.10;;;14.20;99.90;;;;;;5029220;28;20045;-86
2023/07/23 01:31:02;;;;;;;14.43;7.72;;;14.20;99.90;;;;;;5010475;28;20077;-85
2023/07/23 01:33:29;;;;;;;14.68;8.05;;;14.20;99.90;;;;;;4997234;28;20045;-86
2023/07/23 01:35:57;;;;;;;16.23;8.20;;;14.20;99.90;;;;;;5029235;28;20086;-85
2023/07/23 01:38:24;;;;;;;13.25;8.15;;;14.20;99.90;;;;;;5010470;28;20445;-85
2023/07/23 01:40:50;;;;;;;12.73;8.02;;;14.20;99.90;;;;;;4981389;28;20054;-84
2023/07/23 01:43:16;;;;;;;13.27;7.57;;;14.20;99.90;;;;;;4998221;28;20452;-86
2023/07/23 01:45:43;;;;;;;14.80;7.63;;;14.20;99.90;;;;;;5028094;28;20485;-86
2023/07/23 01:48:09;;;;;;;14.65;8.32;;;14.20;99.90;;;;;;5011478;28;20045;-86
2023/07/23 01:50:35;;;;;;;16.63;8.20;;;14.20;99.90;;;;;;5010921;28;20481;-85
2023/07/23 01:53:00;;;;;;;14.02;7.80;;;14.20;99.90;;;;;;4988572;28;20046;-85
2023/07/23 01:55:26;;;;;;;13.32;7.13;;;14.20;99.90;;;;;;5022331;28;20059;-86
2023/07/23 01:57:52;;;;;;;15.68;7.28;;;14.20;99.90;;;;;;5013263;28;20048;-85
2023/07/23 02:00:19;;;;;;;11.70;7.05;;;14.20;99.90;;;;;;5010038;28;20042;-86
2023/07/23 02:02:45;;;;;;;12.07;6.88;;;14.20;99.90;;;;;;5028002;28;20045;-85
2023/07/23 02:05:11;;;;;;;14.60;7.00;;;14.20;99.90;;;;;;5028523;28;20120;-85
2023/07/23 02:07:36;;;;;;;13.30;6.78;;;14.30;99.90;;;;;;5009343;28;20041;-84
2023/07/23 02:10:02;;;;;;;11.32;6.28;;;14.30;99.90;;;;;;5015161;28;20057;-85
2023/07/23 02:12:28;;;;;;;15.68;7.88;;;14.30;99.90;;;;;;5006718;28;20371;-84
2023/07/23 02:14:54;;;;;;;14.38;7.22;;;14.30;99.90;;;;;;5021391;28;20491;-85
2023/07/23 02:17:20;;;;;;;15.15;7.75;;;14.30;99.90;;;;;;5003395;28;20084;-85
2023/07/23 02:19:46;;;;;;;13.80;6.45;;;14.30;99.90;;;;;;4990151;28;20056;-84
2023/07/23 02:22:11;;;;;;;15.68;7.00;;;14.30;99.90;;;;;;5026531;28;20567;-84
2023/07/23 02:24:37;;;;;;;12.00;6.85;;;14.30;99.90;;;;;;5010037;28;20049;-85
2023/07/23 02:27:04;;;;;;;14.63;6.68;;;14.30;99.90;;;;;;4996651;28;20045;-85
2023/07/23 02:29:29;;;;;;;12.88;6.55;;;14.30;99.90;;;;;;4994655;28;20160;-85
2023/07/23 02:31:55;;;;;;;15.65;7.15;;;14.30;99.90;;;;;;4999448;28;20169;-86
2023/07/23 02:34:21;;;;;;;12.05;6.30;;;14.30;99.90;;;;;;5021159;28;20069;-84
2023/07/23 02:36:47;;;;;;;13.80;7.38;;;14.30;99.90;;;;;;4987536;28;20400;-85
2023/07/23 02:39:13;;;;;;;13.32;7.15;;;14.30;99.90;;;;;;5004669;28;20405;-85
2023/07/23 02:41:39;;;;;;;12.45;6.85;;;14.30;99.90;;;;;;5002804;28;20133;-85
2023/07/23 02:44:05;;;;;;;12.35;6.82;;;14.30;99.90;;;;;;5004749;28;20042;-85
2023/07/23 02:46:31;;;;;;;12.93;6.75;;;14.30;99.90;;;;;;5013545;28;20041;-86
2023/07/23 02:48:57;;;;;;;13.20;6.93;;;14.20;99.90;;;;;;4992817;28;20484;-86
2023/07/23 02:51:23;;;;;;;11.07;6.53;;;14.30;99.90;;;;;;4975836;28;20117;-85
2023/07/23 02:53:49;;;;;;;14.68;6.57;;;14.30;99.90;;;;;;4988715;28;20057;-85
2023/07/23 02:56:15;;;;;;;13.68;7.07;;;14.30;99.90;;;;;;5008971;28;20038;-85
2023/07/23 02:58:41;;;;;;;17.52;6.75;;;14.30;99.90;;;;;;5009884;28;20111;-85
2023/07/23 03:01:09;;;;;;;14.57;7.47;;;14.20;99.90;;;;;;5009504;28;20764;-85
2023/07/23 03:03:38;;;;;;;14.82;7.07;;;14.30;99.90;;;;;;4993440;28;20527;-86
2023/07/23 03:06:08;;;;;;;13.63;7.68;;;14.20;99.90;;;;;;4984306;28;20087;-85
2023/07/23 03:08:34;;;;;;;15.68;7.05;;;14.30;99.90;;;;;;5010608;28;20464;-85
2023/07/23 03:11:00;;;;;;;17.05;7.40;;;14.30;99.90;;;;;;5008408;28;20123;-85
2023/07/23 03:13:26;;;;;;;14.50;7.50;;;14.20;99.90;;;;;;4993555;28;20486;-86
2023/07/23 03:15:51;;;;;;;13.50;7.05;;;14.30;99.90;;;;;;4993655;28;20045;-85
2023/07/23 03:18:17;;;;;;;15.07;7.05;;;14.30;99.90;;;;;;5002844;28;20131;-86
2023/07/23 03:20:43;;;;;;;15.77;7.15;;;14.30;99.90;;;;;;5014069;28;20116;-85
2023/07/23 03:23:09;;;;;;;11.52;7.18;;;14.30;99.90;;;;;;4993177;28;20049;-87
2023/07/23 03:25:35;;;;;;;13.07;7.45;;;14.30;99.90;;;;;;5009679;28;20124;-85
2023/07/23 03:28:01;;;;;;;10.65;6.88;;;14.20;99.90;;;;;;4997283;28;20410;-85
2023/07/23 03:30:27;;;;;;;16.73;8.07;;;14.30;99.90;;;;;;5026267;28;20041;-86
2023/07/23 03:32:53;;;;;;;18.75;7.95;;;14.30;99.90;;;;;;5003408;28;20045;-86
2023/07/23 03:35:20;;;;;;;13.32;7.53;;;14.30;99.90;;;;;;5009736;28;20053;-85
2023/07/23 03:37:46;;;;;;;14.93;8.00;;;14.30;99.90;;;;;;4991499;28;20076;-86
2023/07/23 03:40:12;;;;;;;12.95;7.88;;;14.30;99.90;;;;;;4989076;28;20088;-85
2023/07/23 03:42:37;;;;;;;13.60;7.68;;;14.30;99.90;;;;;;5007450;28;20160;-85
2023/07/23 03:45:04;;;;;;;16.58;7.82;;;14.30;99.90;;;;;;5013325;28;20056;-85
2023/07/23 03:47:29;;;;;;;16.60;8.23;;;14.30;99.90;;;;;;5012488;28;20204;-85
2023/07/23 03:49:55;;;;;;;15.63;8.77;;;14.30;99.90;;;;;;4996735;28;20477;-85
2023/07/23 03:52:22;;;;;;;16.13;7.90;;;14.30;99.90;;;;;;5011903;28;20057;-85
2023/07/23 03:54:48;;;;;;;17.67;8.23;;;14.30;99.90;;;;;;5012623;28;20080;-85
2023/07/23 03:57:13;;;;;;;15.98;8.43;;;14.30;99.90;;;;;;5029398;28;20046;-85
2023/07/23 03:59:41;;;;;;;15.57;8.10;;;14.30;99.90;;;;;;4995141;28;20576;-85
2023/07/23 04:02:08;;;;;;;15.45;9.65;;;14.30;99.90;;;;;;4996044;28;20080;-85
2023/07/23 04:04:35;;;;;;;17.88;8.85;;;14.30;99.90;;;;;;4996523;28;20034;-85
2023/07/23 04:07:01;;;;;;;16.10;8.52;;;14.30;99.90;;;;;;5028509;28;20049;-85
2023/07/23 04:09:27;;;;;;;14.15;8.20;;;14.20;99.90;;;;;;5013131;28;20116;-85
2023/07/23 04:11:53;;;;;;;18.08;8.30;;;14.20;99.90;;;;;;5028181;28;21469;-85
2023/07/23 04:14:18;;;;;;;20.23;8.60;;;14.30;99.90;;;;;;5002109;28;20048;-85
2023/07/23 04:16:44;;;;;;;18.08;8.00;;;14.30;99.90;;;;;;5029521;28;20041;-85
2023/07/23 04:19:10;;;;;;;17.80;9.30;;;14.30;99.90;;;;;;5039669;28;20390;-85
2023/07/23 04:21:36;;;;;;;16.20;8.27;;;14.30;99.90;;;;;;5000002;28;20045;-85
2023/07/23 04:24:02;;;;;;;14.57;9.05;;;14.20;99.90;;;;;;5012150;28;20472;-85
2023/07/23 04:26:29;;;;;;;14.43;9.05;;;14.30;99.90;;;;;;4994886;28;20147;-86
2023/07/23 04:28:55;;;;;;;15.35;8.80;;;14.30;99.90;;;;;;5029933;28;20038;-85
2023/07/23 04:31:20;;;;;;;15.82;8.38;;;14.30;99.90;;;;;;5029452;28;20058;-85
2023/07/23 04:33:46;;;;;;;14.55;8.30;;;14.30;99.90;;;;;;5011781;28;20055;-85
2023/07/23 04:36:13;;;;;;;16.88;9.15;;;14.30;99.90;;;;;;4994999;28;20053;-85
2023/07/23 04:38:41;;;;;;;18.40;8.88;;;14.30;99.90;;;;;;5002908;28;20097;-84
2023/07/23 04:41:07;;;;;;;16.92;8.70;;;14.30;99.90;;;;;;5023792;28;20124;-85
2023/07/23 04:43:37;;;;;;;17.33;8.70;;;14.40;99.90;;;;;;5012641;28;20052;-85
2023/07/23 04:46:06;;;;;;;13.95;8.40;;;14.40;99.90;;;;;;4994558;28;20374;-85
2023/07/23 04:48:32;;;;;;;14.82;7.70;;;14.30;99.90;;;;;;5011951;28;20381;-85
2023/07/23 04:50:59;;;;;;;15.52;8.82;;;14.40;99.90;;;;;;4998841;28;20124;-87
2023/07/23 04:53:26;;;;;;;14.60;9.02;;;14.30;99.90;;;;;;5012429;28;20046;-86
2023/07/23 04:55:55;;;;;;;16.40;7.72;;;14.40;99.90;;;;;;5011018;28;20045;-86
2023/07/23 04:58:22;;;;;;;13.98;8.45;;;14.40;99.90;;;;;;5019617;28;20520;-85
2023/07/23 05:00:48;;;;;;;14.75;8.02;;;14.40;99.90;;;;;;4994861;28;20485;-86
2023/07/23 05:03:15;;;;;;;18.98;8.30;;;14.40;99.90;;;;;;5023254;28;20400;-85
2023/07/23 05:05:43;;;;;;;18.33;8.07;;;14.40;99.90;;;;;;4996592;28;20049;-86
2023/07/23 05:08:09;;;;;;;14.80;8.63;;;14.50;99.90;;;;;;5035952;28;20037;-85
2023/07/23 05:10:35;;;;;;;19.73;8.77;;;14.50;99.90;;;;;;5023160;28;20073;-85
2023/07/23 05:13:03;;;;;;;16.55;9.02;;;14.50;99.90;;;;;;5011163;28;20077;-85
2023/07/23 05:15:29;;;;;;;16.42;8.05;;;14.50;99.90;;;;;;5010795;28;20053;-85
2023/07/23 05:17:55;;;;;;;14.68;8.60;;;14.50;99.90;;;;;;4995268;28;20049;-85
2023/07/23 05:20:21;;;;;;;17.48;8.02;;;14.50;99.90;;;;;;4994691;28;20045;-86
2023/07/23 05:22:46;;;;;;;19.02;9.02;;;14.50;99.90;;;;;;4994764;28;20454;-86
2023/07/23 05:25:12;;;;;;;16.48;8.70;;;14.50;99.90;;;;;;5006520;28;20049;-85
2023/07/23 05:27:38;;;;;;;15.38;8.35;;;14.50;99.90;;;;;;4987292;28;20799;-86
2023/07/23 05:30:05;;;;;;;13.40;8.40;;;14.50;99.90;;;;;;4994785;28;20064;-84
2023/07/23 05:32:31;;;;;;;18.45;8.30;;;14.60;99.90;;;;;;4990541;28;20441;-85
2023/07/23 05:34:57;;;;;;;16.33;9.20;;;14.60;99.90;;;;;;4975336;28;20570;-85
2023/07/23 05:37:26;;;;;;;15.13;8.98;;;14.60;99.90;;;;;;4989180;28;20086;-85
2023/07/23 05:39:53;;;;;;;12.68;8.48;;;14.60;99.90;;;;;;5008994;28;20077;-85
2023/07/23 05:42:19;;;;;;;14.10;8.38;;;14.70;99.90;;;;;;4983084;28;20405;-85
2023/07/23 05:44:45;;;;;;;16.23;8.13;;;14.70;99.90;;;;;;4990601;28;20042;-84
2023/07/23 05:47:11;;;;;;;13.60;8.40;;;14.70;99.90;;;;;;4991140;28;20052;-86
2023/07/23 05:49:37;;;;;;;16.42;8.50;;;14.70;99.90;;;;;;4988591;28;20038;-85
2023/07/23 05:52:03;;;;;;;15.63;8.98;;;14.70;99.90;;;;;;4995603;28;20352;-85
2023/07/23 05:54:29;;;;;;;16.73;8.30;;;14.80;99.90;;;;;;5007715;28;20797;-84
2023/07/23 05:56:55;;;;;;;15.98;9.40;;;14.80;99.90;;;;;;4988699;28;20057;-84
2023/07/23 05:59:21;;;;;;;14.25;8.50;;;14.80;99.90;;;;;;5016313;28;20036;-85
2023/07/23 06:01:46;;;;;;;13.52;8.10;;;14.80;99.90;;;;;;5018271;28;20536;-84
2023/07/23 06:04:13;;;;;;;16.13;8.93;;;14.80;99.90;;;;;;4998508;28;20048;-86
2023/07/23 06:06:39;;;;;;;15.50;8.50;;;14.90;99.90;;;;;;5006718;28;20073;-84
2023/07/23 06:09:04;;;;;;;15.40;8.85;;;14.90;99.90;;;;;;5018022;28;20151;-86
2023/07/23 06:11:30;;;;;;;14.80;8.73;;;14.90;99.90;;;;;;4988938;28;20050;-84
2023/07/23 06:13:58;;;;;;;16.15;8.38;;;14.90;99.90;;;;;;5007470;28;20425;-85
2023/07/23 06:16:24;;;;;;;14.55;8.80;;;15.00;99.90;;;;;;4977808;28;20046;-85
2023/07/23 06:18:50;;;;;;;16.67;9.40;;;15.00;99.90;;;;;;4986800;28;20122;-86
2023/07/23 06:21:15;;;;;;;14.02;8.70;;;15.00;99.90;;;;;;4974302;28;20053;-86
2023/07/23 06:23:41;;;;;;;13.73;8.52;;;15.00;99.90;;;;;;4972978;28;20060;-84
2023/07/23 06:26:07;;;;;;;14.52;8.93;;;15.00;99.90;;;;;;4989636;28;20081;-85
2023/07/23 06:28:33;;;;;;;14.70;8.40;;;15.00;99.90;;;;;;4968475;28;20200;-86
2023/07/23 06:30:58;;;;;;;16.90;9.52;;;15.10;99.90;;;;;;4985652;28;20264;-84
2023/07/23 06:33:24;;;;;;;15.18;8.70;;;15.10;99.90;;;;;;5026977;28;20049;-85
2023/07/23 06:35:50;;;;;;;14.05;8.38;;;15.20;99.90;;;;;;5009136;28;20503;-84
2023/07/23 06:38:16;;;;;;;14.45;8.55;;;15.20;99.90;;;;;;5027761;28;20045;-86
2023/07/23 06:40:46;;;;;;;12.55;8.27;;;15.20;99.90;;;;;;4996146;28;20044;-85
2023/07/23 06:43:14;;;;;;;15.05;9.02;;;15.30;99.90;;;;;;5014012;28;20067;-85
2023/07/23 06:45:40;;;;;;;17.73;8.60;;;15.30;99.90;;;;;;4996157;28;20050;-86
2023/07/23 06:48:06;;;;;;;14.75;8.50;;;15.30;99.90;;;;;;5010064;28;20033;-85
2023/07/23 06:50:32;;;;;;;13.65;8.90;;;15.30;99.90;;;;;;4995494;28;20437;-85
2023/07/23 06:53:00;;;;;;;16.08;8.90;;;15.40;99.90;;;;;;5027774;28;20064;-86
2023/07/23 06:55:26;;;;;;;16.75;9.18;;;15.40;99.90;;;;;;4992306;28;20052;-85
2023/07/23 06:57:52;;;;;;;16.30;9.02;;;15.40;99.90;;;;;;4993208;28;20046;-86
2023/07/23 07:00:17;;;;;;;15.60;9.50;;;15.50;99.90;;;;;;4992993;28;20049;-85
2023/07/23 07:02:43;;;;;;;18.70;9.70;;;15.60;99.90;;;;;;5005574;28;20041;-83
2023/07/23 07:05:09;;;;;;;15.00;9.15;;;15.60;99.90;;;;;;5013899;28;20510;-88
2023/07/23 07:07:37;;;;;;;15.63;9.27;;;15.80;99.90;;;;;;5022319;28;20046;-85
2023/07/23 07:10:05;;;;;;;23.08;9.80;;;15.80;99.90;;;;;;5003478;28;20595;-85
2023/07/23 07:12:34;;;;;;;16.50;9.30;;;15.70;99.90;;;;;;5014725;28;20052;-86
2023/07/23 07:14:59;;;;;;;15.43;8.98;;;15.90;99.90;;;;;;4997011;28;20041;-85
2023/07/23 07:17:25;;;;;;;14.88;9.13;;;15.90;99.90;;;;;;5003675;28;20100;-85
2023/07/23 07:19:51;;;;;;;19.38;9.63;;;15.90;99.90;;;;;;5009373;28;20037;-87
2023/07/23 07:22:17;;;;;;;17.90;9.07;;;15.90;99.90;;;;;;4984648;28;20045;-87
2023/07/23 07:24:43;;;;;;;15.98;10.15;;;15.80;99.90;;;;;;5007788;28;20052;-87
2023/07/23 07:27:09;;;;;;;18.05;9.13;;;15.80;99.90;;;;;;5010521;28;20045;-87
2023/07/23 07:29:40;;;;;;;14.85;9.00;;;15.70;99.90;;;;;;4999991;28;20089;-85
2023/07/23 07:32:08;;;;;;;14.63;9.38;;;15.80;99.90;;;;;;4999348;28;20053;-85
2023/07/23 07:34:34;;;;;;;17.80;9.77;;;15.80;99.90;;;;;;5013141;28;20083;-85
2023/07/23 07:37:00;;;;;;;20.13;9.60;;;15.80;99.90;;;;;;5005658;28;20049;-85
2023/07/23 07:39:26;;;;;;;16.73;9.93;;;15.80;99.90;;;;;;5014155;28;20053;-85
2023/07/23 07:41:53;;;;;;;17.67;9.88;;;15.80;99.90;;;;;;5013048;28;20042;-85
2023/07/23 07:44:20;;;;;;;15.43;9.93;;;15.80;99.90;;;;;;5010388;28;20621;-84
2023/07/23 07:46:46;;;;;;;18.85;10.32;;;15.80;99.90;;;;;;5004271;28;20077;-87
2023/07/23 07:49:11;;;;;;;22.92;9.65;;;15.80;99.90;;;;;;5006931;28;20088;-86
2023/07/23 07:51:39;;;;;;;16.45;10.23;;;15.80;99.90;;;;;;5009761;28;20045;-87
2023/07/23 07:54:05;;;;;;;19.90;10.82;;;15.90;99.90;;;;;;5007050;28;20050;-86
2023/07/23 07:56:31;;;;;;;18.75;11.30;;;15.90;99.90;;;;;;5001485;28;20397;-84
2023/07/23 07:58:57;;;;;;;16.23;10.27;;;16.00;99.90;;;;;;5011996;28;20401;-85
2023/07/23 08:01:23;;;;;;;18.20;10.57;;;16.00;99.90;;;;;;5025870;28;20061;-85
2023/07/23 08:03:49;;;;;;;19.92;10.73;;;16.00;99.90;;;;;;5019587;28;20101;-84
2023/07/23 08:06:16;;;;;;;21.48;10.38;;;16.10;99.90;;;;;;5017733;28;20245;-84
2023/07/23 08:08:45;;;;;;;18.63;10.05;;;16.10;99.90;;;;;;5007193;28;20402;-84
2023/07/23 08:11:14;;;;;;;16.45;10.15;;;16.00;99.90;;;;;;5006439;28;20048;-84
2023/07/23 08:13:41;;;;;;;18.25;9.48;;;16.00;99.90;;;;;;5025585;28;20061;-84
2023/07/23 08:16:07;;;;;;;17.52;10.23;;;16.10;99.90;;;;;;4988352;28;20124;-84
2023/07/23 08:18:33;;;;;;;21.50;9.65;;;16.00;99.90;;;;;;5002828;28;20037;-84
2023/07/23 08:20:59;;;;;;;17.90;9.63;;;16.00;99.90;;;;;;5028291;28;20037;-88
2023/07/23 08:23:25;;;;;;;16.73;9.45;;;16.00;99.90;;;;;;4996251;28;20111;-86
2023/07/23 08:25:56;;;;;;;17.05;9.60;;;16.10;99.90;;;;;;4985202;28;20056;-85
2023/07/23 08:28:25;;;;;;;19.13;9.70;;;16.10;99.90;;;;;;5004935;28;20046;-87
2023/07/23 08:30:51;;;;;;;18.58;8.90;;;16.10;99.90;;;;;;5006611;28;20521;-86
2023/07/23 08:33:18;;;;;;;13.02;7.97;;;16.20;99.90;;;;;;5028859;28;20141;-87
2023/07/23 08:35:44;;;;;;;17.15;8.45;;;16.20;99.90;;;;;;5002875;28;20037;-86
2023/07/23 08:38:10;;;;;;;14.82;8.70;;;16.10;99.90;;;;;;5009839;28;20054;-86
2023/07/23 08:40:44;;;;;;;15.75;9.63;;;16.20;99.90;;;;;;4995109;28;20034;-87
2023/07/23 08:43:31;;;;;;;16.45;9.20;;;16.20;99.90;;;;;;5013875;28;20057;-87
2023/07/23 08:46:18;;;;;;;14.02;8.88;;;16.10;99.90;;;;;;4987870;28;20037;-88
2023/07/23 08:48:59;;;;;;;18.08;9.95;;;16.10;99.90;;;;;;4994954;28;20401;-86
2023/07/23 08:51:45;;;;;;;14.77;8.80;;;16.10;99.90;;;;;;4996408;28;20071;-87
2023/07/23 08:54:12;;;;;;;15.85;9.02;;;16.10;99.90;;;;;;5023112;28;20069;-87
2023/07/23 08:56:42;;;;;;;15.50;9.07;;;16.10;99.90;;;;;;5002318;28;20060;-88
2023/07/23 08:59:09;;;;;;;13.13;8.98;;;16.10;99.90;;;;;;4996953;28;20507;-85
2023/07/23 09:01:36;;;;;;;13.57;9.13;;;16.00;99.90;;;;;;5011807;28;20084;-88
2023/07/23 09:04:05;;;;;;;12.15;8.48;;;16.10;99.90;;;;;;5011647;28;20095;-88
2023/07/23 09:06:31;;;;;;;18.23;9.50;;;16.10;99.90;;;;;;5010882;28;20104;-87
2023/07/23 09:09:04;;;;;;;13.77;8.57;;;16.10;99.90;;;;;;4993112;28;20045;-89
2023/07/23 09:11:30;;;;;;;13.95;9.05;;;16.20;99.90;;;;;;5028366;28;20132;-87
2023/07/23 09:14:01;;;;;;;16.25;8.70;;;16.20;99.90;;;;;;4981312;28;20116;-88
2023/07/23 09:16:47;;;;;;;15.30;8.82;;;16.20;99.90;;;;;;4994351;28;20485;-95
2023/07/23 09:19:22;;;;;;;14.35;8.82;;;16.20;99.90;;;;;;4992672;28;20050;-89
2023/07/23 09:21:47;;;;;;;14.32;8.77;;;16.10;99.90;;;;;;5006664;28;20481;-87
2023/07/23 09:24:17;;;;;;;13.90;9.18;;;16.10;99.90;;;;;;4987846;28;20165;-85
2023/07/23 09:26:44;;;;;;;12.88;8.88;;;16.20;99.90;;;;;;4997881;28;20045;-86
2023/07/23 09:29:11;;;;;;;13.68;8.55;;;16.20;99.90;;;;;;4983287;28;20057;-87
2023/07/23 09:31:41;;;;;;;17.38;9.18;;;16.20;99.90;;;;;;4986778;28;20056;-90
2023/07/23 09:34:07;;;;;;;14.10;8.63;;;16.20;99.90;;;;;;5013685;28;20071;-88
2023/07/23 09:36:36;;;;;;;16.65;9.50;;;16.20;99.90;;;;;;4994804;28;20449;-88
2023/07/23 09:39:04;;;;;;;13.75;8.88;;;16.20;99.90;;;;;;4988615;28;20084;-89
2023/07/23 09:41:35;;;;;;;13.93;8.27;;;16.20;99.90;;;;;;5006307;28;20564;-87
2023/07/23 09:44:10;;;;;;;17.33;9.23;;;16.20;99.90;;;;;;4997680;28;20088;-93
2023/07/23 09:46:37;;;;;;;15.30;9.20;;;16.30;99.90;;;;;;5009327;28;20050;-89
2023/07/23 09:49:03;;;;;;;13.88;8.57;;;16.30;99.90;;;;;;4990031;28;20053;-84
2023/07/23 09:51:32;;;;;;;10.73;6.97;;;16.30;99.90;;;;;;4992614;28;20140;-87
2023/07/23 09:54:05;;;;;;;13.02;8.20;;;16.30;99.90;;;;;;4992847;28;20053;-87
2023/07/23 09:56:36;;;;;;;11.85;7.60;;;16.30;99.90;;;;;;5000784;28;20052;-87
2023/07/23 09:59:03;;;;;;;11.70;7.72;;;16.30;99.90;;;;;;4986230;28;20469;-88
2023/07/23 10:01:30;;;;;;;11.48;7.93;;;16.30;99.90;;;;;;4980609;28;20121;-87
2023/07/23 10:03:58;;;;;;;10.82;8.25;;;16.30;99.90;;;;;;4998534;28;20104;-88
2023/07/23 10:06:24;;;;;;;14.30;8.60;;;16.30;99.90;;;;;;5017692;28;20073;-87
2023/07/23 10:08:50;;;;;;;11.60;7.55;;;16.20;99.90;;;;;;4997839;28;20049;-87
2023/07/23 10:11:18;;;;;;;12.50;8.18;;;16.30;99.90;;;;;;4995284;28;20453;-88
2023/07/23 10:13:47;;;;;;;14.73;8.57;;;16.30;99.90;;;;;;4980927;28;20041;-87
2023/07/23 10:16:29;;;;;;;13.75;7.60;;;16.30;99.90;;;;;;5005453;28;20057;-89
2023/07/23 10:18:58;;;;;;;14.18;8.52;;;16.30;99.90;;;;;;4995427;28;20052;-87
2023/07/23 10:21:24;;;;;;;13.40;7.78;;;16.30;99.90;;;;;;4979856;28;20128;-87
2023/07/23 10:23:57;;;;;;;12.63;8.20;;;16.30;99.90;;;;;;4994516;28;20057;-88
2023/07/23 10:26:23;;;;;;;13.05;7.80;;;16.30;99.90;;;;;;4989284;28;20492;-88
2023/07/23 10:29:12;;;;;;;11.60;8.20;;;16.30;99.90;;;;;;4996110;28;20050;-88
2023/07/23 10:31:39;;;;;;;13.18;7.95;;;16.30;99.90;;;;;;5011518;28;20077;-88
2023/07/23 10:34:41;;;;;;;13.07;7.75;;;16.30;99.90;;;;;;5010547;28;20128;-87
2023/07/23 10:37:18;;;;;;;11.25;7.68;;;16.30;99.90;;;;;;4949251;28;20068;-87
2023/07/23 10:39:47;;;;;;;16.58;8.48;;;16.30;99.90;;;;;;4985249;28;20053;-90
2023/07/23 10:42:28;;;;;;;13.25;7.72;;;16.30;99.90;;;;;;4997429;28;20529;-89
2023/07/23 10:45:21;;;;;;;11.98;7.95;;;16.40;99.90;;;;;;5008125;28;20119;-87
2023/07/23 10:47:54;;;;;;;11.93;8.05;;;16.40;99.90;;;;;;4993200;28;20084;-88
2023/07/23 10:50:21;;;;;;;12.40;7.70;;;16.40;99.90;;;;;;5006070;28;20268;-89
2023/07/23 10:52:52;;;;;;;12.05;7.82;;;16.50;99.90;;;;;;5002474;28;20045;-88
2023/07/23 10:55:36;;;;;;;209.63;20.63;;;16.50;99.90;;;;;;5006497;28;20089;-88
2023/07/23 10:58:13;;;;;;;21.23;7.43;;;16.60;99.90;;;;;;4988379;28;20045;-91
2023/07/23 11:00:47;;;;;;;18.00;7.63;;;16.60;99.90;;;;;;4997357;28;20045;-86
2023/07/23 11:03:18;;;;;;;13.93;7.35;;;16.70;99.90;;;;;;5011493;28;20052;-88
2023/07/23 11:05:44;;;;;;;12.13;6.90;;;16.50;99.90;;;;;;4992292;28;20124;-85
2023/07/23 11:08:20;;;;;;;12.10;6.88;;;16.80;99.90;;;;;;5000769;28;20073;-88
2023/07/23 11:10:49;;;;;;;11.55;6.65;;;16.80;99.90;;;;;;4988016;28;20053;-87
2023/07/23 11:13:16;;;;;;;12.43;6.82;;;16.80;99.90;;;;;;5002890;28;20506;-86
2023/07/23 11:15:42;;;;;;;20.40;7.95;;;16.90;99.90;;;;;;4993107;28;20617;-86
2023/07/23 11:18:09;;;;;;;12.95;6.93;;;16.90;99.90;;;;;;5003804;28;20041;-93
2023/07/23 11:20:35;;;;;;;13.38;7.97;;;17.00;99.90;;;;;;5005402;28;20081;-87
2023/07/23 11:23:04;;;;;;;11.60;6.60;;;17.00;99.90;;;;;;4980930;28;20042;-88
2023/07/23 11:25:29;;;;;;;10.18;6.90;;;17.10;99.90;;;;;;4987617;28;20124;-86
2023/07/23 11:27:55;;;;;;;12.80;6.95;;;17.10;99.90;;;;;;4979050;28;20529;-88
2023/07/23 11:30:21;;;;;;;13.18;7.07;;;17.10;99.90;;;;;;4993807;28;20052;-88
2023/07/23 11:32:49;;;;;;;10.88;7.53;;;17.20;99.90;;;;;;4979014;28;20052;-88
2023/07/23 11:35:17;;;;;;;11.68;6.80;;;17.20;99.90;;;;;;4988934;28;20096;-88
2023/07/23 11:37:49;;;;;;;10.50;6.85;;;17.30;99.90;;;;;;5005622;28;20049;-87
2023/07/23 11:40:23;;;;;;;12.88;7.10;;;17.30;99.90;;;;;;5007046;28;20499;-87
2023/07/23 11:42:51;;;;;;;16.52;7.00;;;17.30;99.90;;;;;;5002681;28;20434;-86
2023/07/23 11:45:17;;;;;;;10.02;7.18;;;17.40;99.90;;;;;;4990434;28;20056;-87
2023/07/23 11:47:52;;;;;;;9.18;6.82;;;17.30;99.90;;;;;;4997341;28;20049;-86
2023/07/23 11:50:21;;;;;;;11.65;6.70;;;17.30;99.90;;;;;;4990516;28;20393;-86
2023/07/23 11:52:48;;;;;;;11.27;6.35;;;17.30;99.90;;;;;;4994164;28;20042;-87
2023/07/23 11:55:26;;;;;;;13.18;6.97;;;17.40;99.90;;;;;;4985781;28;20038;-86
2023/07/23 11:57:59;;;;;;;12.50;6.75;;;17.30;99.90;;;;;;5021257;28;20051;-87
2023/07/23 12:00:27;;;;;;;11.70;6.60;;;17.30;99.90;;;;;;5009074;28;20133;-86
2023/07/23 12:02:54;;;;;;;10.98;6.57;;;17.30;99.90;;;;;;5011206;28;20048;-87
2023/07/23 12:05:22;;;;;;;11.70;7.20;;;17.30;99.90;;;;;;5029459;28;20045;-85
2023/07/23 12:07:47;;;;;;;11.30;6.97;;;17.30;99.90;;;;;;5009520;28;20457;-87
2023/07/23 12:10:14;;;;;;;12.23;6.95;;;17.20;99.90;;;;;;4994725;28;20112;-86
2023/07/23 12:12:44;;;;;;;12.63;6.95;;;17.20;99.90;;;;;;5007209;28;20053;-88
2023/07/23 12:15:15;;;;;;;11.55;6.57;;;17.20;99.90;;;;;;4997818;28;20135;-86
2023/07/23 12:17:42;;;;;;;9.77;6.55;;;17.10;99.90;;;;;;4998860;28;20065;-86
2023/07/23 12:20:09;;;;;;;11.27;6.60;;;17.20;99.90;;;;;;5031316;28;20052;-87
2023/07/23 12:22:51;;;;;;;7.88;5.75;;;17.20;99.90;;;;;;4990916;28;20050;-86
2023/07/23 12:25:29;;;;;;;8.77;5.95;;;17.20;99.90;;;;;;5018000;28;20049;-87
2023/07/23 12:27:54;;;;;;;11.30;5.65;;;17.20;99.90;;;;;;4995392;28;20783;-86
2023/07/23 12:30:20;;;;;;;10.30;5.85;;;17.10;99.90;;;;;;4999964;28;20045;-88
2023/07/23 12:32:47;;;;;;;7.07;5.60;;;17.20;99.90;;;;;;4996210;28;20438;-87
2023/07/23 12:35:13;;;;;;;10.68;5.90;;;17.30;99.90;;;;;;4997279;28;20042;-87
2023/07/23 12:37:39;;;;;;;7.93;5.60;;;17.60;99.90;;;;;;5012275;28;20103;-87